Time;durP1;ratioP1;P1;durP2;ratioP2;P2;SDS_P1;SDS_P2;PMS_P1;PMS_P2;Temp;Humidity;BMP_temperature;BMP_pressure;BME280_temperature;BME280_humidity;BME280_pressure;Samples;Min_cycle;Max_cycle;Signal;HPM_P1;HPM_P2
2023/05/20 11:00:19;;;;;;;3.90;1.45;;;20.80;97.00;;;;;;4973083;23;20254;-73
2023/05/20 11:02:46;;;;;;;2.13;1.08;;;20.40;97.20;;;;;;4928209;29;20225;-74
2023/05/20 11:05:13;;;;;;;3.08;1.20;;;20.50;97.40;;;;;;4902903;29;20638;-73
2023/05/20 11:07:40;;;;;;;2.20;1.02;;;20.60;97.40;;;;;;4939556;29;20231;-73
2023/05/20 11:10:08;;;;;;;3.78;1.02;;;20.70;97.30;;;;;;4923813;29;20212;-73
2023/05/20 11:12:35;;;;;;;1.27;1.00;;;20.50;97.70;;;;;;4923586;29;20219;-73
2023/05/20 11:15:02;;;;;;;3.53;1.23;;;20.50;97.80;;;;;;4923472;29;20236;-74
2023/05/20 11:17:28;;;;;;;1.20;1.00;;;20.20;97.90;;;;;;4910598;29;20257;-73
2023/05/20 11:19:55;;;;;;;2.22;1.20;;;20.20;98.00;;;;;;4901206;29;20209;-73
2023/05/20 11:22:22;;;;;;;4.40;1.38;;;20.40;97.80;;;;;;4901322;29;20248;-73
2023/05/20 11:24:48;;;;;;;1.83;1.17;;;20.50;98.00;;;;;;4900973;29;20645;-73
2023/05/20 11:27:15;;;;;;;2.38;1.25;;;20.40;98.30;;;;;;4900765;29;20696;-73
2023/05/20 11:29:42;;;;;;;1.67;1.00;;;20.70;98.20;;;;;;4904287;29;20735;-73
2023/05/20 11:32:09;;;;;;;1.85;1.27;;;20.90;97.50;;;;;;4920306;29;20213;-73
2023/05/20 11:34:36;;;;;;;1.40;0.90;;;20.90;97.40;;;;;;4919998;29;20307;-73
2023/05/20 11:37:02;;;;;;;1.75;1.15;;;20.70;97.60;;;;;;4919954;29;20624;-73
2023/05/20 11:39:29;;;;;;;1.83;1.27;;;20.70;97.60;;;;;;4919873;29;20642;-73
2023/05/20 11:41:57;;;;;;;2.10;1.20;;;20.70;97.70;;;;;;4920256;29;20208;-73
2023/05/20 11:44:23;;;;;;;1.88;0.90;;;20.60;98.00;;;;;;4920189;29;20323;-73
2023/05/20 11:46:50;;;;;;;2.30;1.27;;;20.80;98.30;;;;;;4919653;29;20209;-73
2023/05/20 11:49:17;;;;;;;1.67;1.33;;;20.60;98.20;;;;;;4919568;29;20299;-74
2023/05/20 11:51:43;;;;;;;3.17;1.10;;;20.70;98.50;;;;;;4920356;29;20251;-73
2023/05/20 11:54:10;;;;;;;1.58;1.10;;;20.90;98.10;;;;;;4929838;29;20242;-73
2023/05/20 11:56:37;;;;;;;1.70;1.40;;;21.00;97.90;;;;;;4905604;29;20213;-73
2023/05/20 11:59:04;;;;;;;4.70;1.48;;;21.00;97.70;;;;;;4920103;29;20209;-73
2023/05/20 12:01:36;;;;;;;1.77;1.15;;;20.90;97.70;;;;;;4919539;29;20248;-73
2023/05/20 12:04:04;;;;;;;2.38;1.20;;;20.70;98.60;;;;;;4936430;29;20232;-72
2023/05/20 12:06:31;;;;;;;1.30;1.10;;;20.50;98.70;;;;;;4936416;29;20294;-73
2023/05/20 12:09:05;;;;;;;1.60;1.10;;;20.40;98.70;;;;;;4936421;29;20224;-73
2023/05/20 12:11:33;;;;;;;2.22;1.20;;;20.50;98.90;;;;;;4936872;29;20679;-72
2023/05/20 12:13:59;;;;;;;1.58;1.10;;;20.90;98.30;;;;;;4936806;29;20300;-75
2023/05/20 12:16:26;;;;;;;1.92;1.23;;;21.20;98.00;;;;;;4939888;29;20204;-76
2023/05/20 12:18:55;;;;;;;2.42;1.10;;;21.30;97.70;;;;;;4940325;29;20652;-75
2023/05/20 12:21:22;;;;;;;2.85;1.38;;;21.20;98.20;;;;;;4943254;29;20260;-76
2023/05/20 12:23:49;;;;;;;1.70;1.00;;;21.10;98.00;;;;;;4939731;29;20244;-77
2023/05/20 12:26:16;;;;;;;1.90;1.30;;;21.10;98.80;;;;;;4938818;29;20209;-75
2023/05/20 12:28:43;;;;;;;1.60;1.10;;;20.80;98.50;;;;;;4942085;29;20232;-75
2023/05/20 12:31:10;;;;;;;1.17;1.00;;;20.90;99.20;;;;;;4943086;29;20212;-74
2023/05/20 12:33:37;;;;;;;2.88;1.10;;;20.90;98.60;;;;;;4944083;29;20264;-76
2023/05/20 12:36:06;;;;;;;1.98;1.40;;;21.00;98.80;;;;;;4942927;29;20213;-76
2023/05/20 12:38:33;;;;;;;1.98;1.20;;;21.20;98.80;;;;;;4939105;29;20272;-76
2023/05/20 12:41:00;;;;;;;3.65;1.35;;;21.20;98.60;;;;;;4936886;29;20212;-76
2023/05/20 12:43:28;;;;;;;2.55;1.08;;;21.20;98.60;;;;;;4936651;29;20208;-77
2023/05/20 12:45:55;;;;;;;2.60;1.42;;;21.40;98.40;;;;;;4936299;29;20781;-76
2023/05/20 12:48:22;;;;;;;1.35;1.20;;;21.40;98.20;;;;;;4936202;29;20752;-76
2023/05/20 12:50:48;;;;;;;2.47;1.25;;;21.20;98.40;;;;;;4936229;29;20264;-77
2023/05/20 12:53:17;;;;;;;2.58;1.10;;;21.00;98.80;;;;;;4936267;29;20262;-78
2023/05/20 12:55:44;;;;;;;1.83;1.10;;;21.00;98.50;;;;;;4936011;29;20213;-77
2023/05/20 12:58:11;;;;;;;1.52;1.00;;;20.90;99.20;;;;;;4932653;29;20263;-75
2023/05/20 13:00:37;;;;;;;2.38;1.20;;;20.70;99.10;;;;;;4933847;29;20252;-78
2023/05/20 13:03:04;;;;;;;2.15;1.15;;;20.70;99.00;;;;;;4931531;29;20300;-76
2023/05/20 13:05:31;;;;;;;2.40;1.20;;;20.80;99.40;;;;;;4934871;29;20232;-76
2023/05/20 13:07:58;;;;;;;1.73;1.40;;;20.90;99.20;;;;;;4929737;29;20634;-77
2023/05/20 13:10:27;;;;;;;2.05;0.93;;;21.00;99.10;;;;;;4935627;29;20247;-78
2023/05/20 13:12:54;;;;;;;1.30;1.10;;;21.20;99.40;;;;;;4933859;29;20296;-78
2023/05/20 13:15:21;;;;;;;2.85;1.10;;;21.40;98.70;;;;;;4934103;29;20208;-76
2023/05/20 13:17:48;;;;;;;2.17;0.90;;;21.30;98.40;;;;;;4933134;29;20256;-78
2023/05/20 13:20:15;;;;;;;1.20;1.00;;;21.30;99.30;;;;;;4935252;29;20244;-77
2023/05/20 13:22:42;;;;;;;2.05;1.15;;;21.60;98.40;;;;;;4935408;29;20216;-78
2023/05/20 13:25:09;;;;;;;2.97;1.20;;;21.90;98.00;;;;;;4937234;29;20271;-76
2023/05/20 13:27:38;;;;;;;4.72;1.10;;;22.20;98.40;;;;;;4938329;29;20264;-78
2023/05/20 13:30:06;;;;;;;1.10;0.90;;;22.50;97.70;;;;;;4938555;29;20287;-78
2023/05/20 13:32:33;;;;;;;3.50;1.30;;;22.80;98.40;;;;;;4933179;29;20608;-73
2023/05/20 13:34:59;;;;;;;3.63;1.08;;;22.60;96.60;;;;;;4937498;29;20248;-78
2023/05/20 13:37:26;;;;;;;2.50;1.38;;;22.10;97.60;;;;;;4931604;29;20225;-78
2023/05/20 13:39:54;;;;;;;2.10;1.20;;;22.30;97.30;;;;;;4939598;29;20236;-77
2023/05/20 13:42:21;;;;;;;1.40;1.08;;;22.50;97.50;;;;;;4940667;29;20208;-77
2023/05/20 13:44:50;;;;;;;1.42;1.13;;;22.30;97.60;;;;;;4938785;29;20242;-79
2023/05/20 13:47:17;;;;;;;1.42;1.05;;;22.10;97.90;;;;;;4938871;29;20271;-78
2023/05/20 13:49:43;;;;;;;1.17;1.08;;;21.90;97.50;;;;;;4937811;29;20254;-76
2023/05/20 13:52:10;;;;;;;1.38;1.05;;;21.70;97.80;;;;;;4938903;29;20236;-76
2023/05/20 13:54:37;;;;;;;0.80;0.70;;;21.80;98.10;;;;;;4937165;29;20307;-76
2023/05/20 13:57:06;;;;;;;1.58;0.98;;;22.00;97.50;;;;;;4938652;29;20738;-78
2023/05/20 13:59:33;;;;;;;1.20;1.08;;;21.80;97.70;;;;;;4935333;29;20208;-78
2023/05/20 14:02:02;;;;;;;3.35;1.10;;;21.90;98.30;;;;;;4937350;29;20253;-75
2023/05/20 14:04:29;;;;;;;1.83;1.13;;;22.10;98.60;;;;;;4938627;29;20239;-76
2023/05/20 14:06:58;;;;;;;1.45;1.08;;;21.90;98.00;;;;;;4939079;29;20315;-76
2023/05/20 14:09:24;;;;;;;1.83;1.08;;;21.80;98.50;;;;;;4938533;29;20229;-76
2023/05/20 14:11:51;;;;;;;1.98;1.20;;;21.70;98.10;;;;;;4938758;29;20248;-75
2023/05/20 14:14:18;;;;;;;5.07;1.50;;;21.90;98.10;;;;;;4938941;29;20584;-76
2023/05/20 14:16:45;;;;;;;2.30;1.50;;;21.90;98.30;;;;;;4938901;29;20248;-75
2023/05/20 14:19:13;;;;;;;1.63;1.25;;;22.10;97.70;;;;;;4938671;29;20208;-77
2023/05/20 14:21:40;;;;;;;2.72;1.20;;;22.00;98.10;;;;;;4938370;29;20236;-75
2023/05/20 14:24:07;;;;;;;3.58;1.05;;;21.90;97.90;;;;;;4938629;29;20247;-74
2023/05/20 14:26:37;;;;;;;1.52;0.93;;;21.90;98.30;;;;;;4938926;29;20268;-76
2023/05/20 14:29:04;;;;;;;1.77;1.10;;;21.60;98.50;;;;;;4938561;29;20231;-77
2023/05/20 14:31:31;;;;;;;2.33;1.10;;;21.30;98.70;;;;;;4938146;29;20209;-77
2023/05/20 14:33:58;;;;;;;2.90;1.58;;;21.20;98.90;;;;;;4938250;29;20244;-77
2023/05/20 14:36:27;;;;;;;1.42;0.93;;;21.30;99.00;;;;;;4937559;29;20217;-77
2023/05/20 14:38:54;;;;;;;3.10;1.30;;;21.40;98.90;;;;;;4938040;29;20264;-77
2023/05/20 14:41:22;;;;;;;2.33;1.10;;;21.40;99.00;;;;;;4938247;29;20213;-78
2023/05/20 14:43:49;;;;;;;3.78;1.20;;;21.30;99.10;;;;;;4938942;29;20304;-77
2023/05/20 14:46:16;;;;;;;1.75;1.10;;;21.30;99.60;;;;;;4939491;29;20236;-76
2023/05/20 14:48:43;;;;;;;3.05;1.38;;;21.40;99.10;;;;;;4937896;29;20225;-76
2023/05/20 14:51:10;;;;;;;1.75;1.05;;;21.60;98.60;;;;;;4938027;29;20208;-77
2023/05/20 14:53:38;;;;;;;1.77;1.10;;;21.60;98.80;;;;;;4937956;29;20307;-78
2023/05/20 14:56:05;;;;;;;2.10;1.25;;;21.60;98.90;;;;;;4938030;29;20672;-78
2023/05/20 14:58:33;;;;;;;1.63;1.10;;;21.60;98.80;;;;;;4937849;29;20264;-77
2023/05/20 15:00:59;;;;;;;1.85;0.93;;;21.50;98.80;;;;;;4937526;29;20268;-76
2023/05/20 15:03:27;;;;;;;1.45;0.95;;;21.60;99.10;;;;;;4937379;29;20762;-78
2023/05/20 15:05:54;;;;;;;1.55;0.88;;;21.50;99.20;;;;;;4937417;29;20236;-78
2023/05/20 15:08:21;;;;;;;1.23;1.10;;;21.40;99.40;;;;;;4937782;29;20232;-73
2023/05/20 15:10:50;;;;;;;1.58;1.10;;;21.40;99.60;;;;;;4937641;29;20304;-77
2023/05/20 15:13:17;;;;;;;1.88;1.13;;;21.30;99.20;;;;;;4937743;29;20576;-78
2023/05/20 15:15:44;;;;;;;1.25;1.10;;;21.20;99.60;;;;;;4937427;29;20292;-75
2023/05/20 15:18:11;;;;;;;1.10;1.00;;;21.30;99.30;;;;;;4937148;29;20244;-75
2023/05/20 15:20:38;;;;;;;1.40;1.00;;;21.50;99.20;;;;;;4937310;29;20236;-76
2023/05/20 15:23:05;;;;;;;1.88;1.27;;;21.70;99.10;;;;;;4937105;29;20295;-78
2023/05/20 15:25:32;;;;;;;1.92;1.15;;;21.80;99.20;;;;;;4937185;29;20997;-77
2023/05/20 15:28:00;;;;;;;2.17;1.20;;;21.90;99.70;;;;;;4936966;29;20677;-77
2023/05/20 15:30:27;;;;;;;1.98;1.02;;;22.10;98.90;;;;;;4936981;29;20648;-77
2023/05/20 15:32:54;;;;;;;2.88;1.08;;;22.20;99.00;;;;;;4937205;29;20299;-76
2023/05/20 15:35:21;;;;;;;3.72;1.17;;;22.00;99.00;;;;;;4937218;29;20660;-75
2023/05/20 15:37:47;;;;;;;1.63;1.20;;;21.60;99.10;;;;;;4937070;29;20320;-77
2023/05/20 15:40:16;;;;;;;2.63;1.40;;;21.40;99.70;;;;;;4937071;29;20288;-76
2023/05/20 15:42:43;;;;;;;2.65;1.30;;;21.40;99.20;;;;;;4937064;29;20287;-77
2023/05/20 15:45:11;;;;;;;1.38;1.10;;;21.40;99.50;;;;;;4937191;29;20323;-78
2023/05/20 15:47:39;;;;;;;1.50;0.90;;;21.50;99.40;;;;;;4936220;29;20272;-77
2023/05/20 15:50:07;;;;;;;1.38;1.02;;;21.50;99.20;;;;;;4937167;29;20316;-76
2023/05/20 15:52:34;;;;;;;1.98;1.10;;;21.70;99.20;;;;;;4936992;29;20212;-77
2023/05/20 15:55:01;;;;;;;1.67;1.10;;;21.70;99.30;;;;;;4936989;29;20243;-77
2023/05/20 15:57:29;;;;;;;1.40;1.23;;;21.80;99.50;;;;;;4936365;29;20566;-76
2023/05/20 15:59:56;;;;;;;1.20;1.10;;;21.60;99.60;;;;;;4936573;29;20739;-75
2023/05/20 16:02:25;;;;;;;1.92;1.38;;;21.70;99.50;;;;;;4936603;29;20244;-77
2023/05/20 16:04:52;;;;;;;2.42;1.52;;;21.40;99.70;;;;;;4937082;29;20215;-77
2023/05/20 16:07:19;;;;;;;1.90;1.40;;;21.10;99.90;;;;;;4936293;29;20256;-77
2023/05/20 16:09:46;;;;;;;1.88;1.38;;;20.90;99.90;;;;;;4936572;29;20572;-78
2023/05/20 16:12:15;;;;;;;2.55;1.40;;;20.90;99.90;;;;;;4936721;29;20233;-77
2023/05/20 16:14:43;;;;;;;2.10;1.63;;;20.80;99.90;;;;;;4936483;29;20304;-77
2023/05/20 16:17:10;;;;;;;3.40;1.40;;;20.70;99.90;;;;;;4936491;29;20229;-75
2023/05/20 16:19:38;;;;;;;1.95;1.20;;;20.70;99.90;;;;;;4936395;29;20572;-75
2023/05/20 16:22:05;;;;;;;1.88;1.40;;;20.70;99.90;;;;;;4936498;29;20239;-75
2023/05/20 16:24:32;;;;;;;2.03;1.20;;;20.50;99.90;;;;;;4936130;29;20248;-78
2023/05/20 16:26:59;;;;;;;2.47;1.30;;;20.50;99.90;;;;;;4935830;29;20272;-75
2023/05/20 16:29:26;;;;;;;3.33;1.30;;;20.30;99.90;;;;;;4936059;29;20633;-75
2023/05/20 16:31:53;;;;;;;3.53;1.33;;;20.20;99.90;;;;;;4936305;29;20252;-75
2023/05/20 16:34:20;;;;;;;2.22;1.15;;;20.20;99.90;;;;;;4936309;29;20208;-77
2023/05/20 16:36:48;;;;;;;1.80;1.40;;;20.10;99.90;;;;;;4936241;29;20236;-74
2023/05/20 16:39:16;;;;;;;2.30;1.50;;;20.20;99.90;;;;;;4936151;29;20255;-74
2023/05/20 16:41:43;;;;;;;1.30;1.10;;;20.30;99.90;;;;;;4935902;29;20244;-74
2023/05/20 16:44:10;;;;;;;2.63;1.60;;;20.70;99.90;;;;;;4936085;29;20303;-73
2023/05/20 16:46:37;;;;;;;2.53;1.55;;;21.00;99.90;;;;;;4936030;29;20342;-74
2023/05/20 16:49:04;;;;;;;3.90;1.90;;;21.00;99.90;;;;;;4935931;29;20255;-74
2023/05/20 16:51:31;;;;;;;2.20;1.75;;;20.90;99.90;;;;;;4936268;29;20251;-76
2023/05/20 16:53:59;;;;;;;1.90;1.70;;;20.80;99.90;;;;;;4935951;29;20292;-76
2023/05/20 16:56:26;;;;;;;3.97;1.90;;;20.70;99.90;;;;;;4935918;29;20316;-78
2023/05/20 16:58:53;;;;;;;2.72;1.92;;;20.50;99.90;;;;;;4935131;29;20229;-78
2023/05/20 17:01:20;;;;;;;3.35;1.90;;;20.30;99.90;;;;;;4936123;29;20220;-74
2023/05/20 17:03:47;;;;;;;3.47;2.63;;;20.00;99.90;;;;;;4935426;29;20739;-74
2023/05/20 17:06:14;;;;;;;4.43;2.38;;;19.80;99.90;;;;;;4935745;29;20232;-78
2023/05/20 17:08:41;;;;;;;5.18;2.85;;;19.70;99.90;;;;;;4935668;29;20319;-78
2023/05/20 17:11:09;;;;;;;3.00;2.33;;;19.50;99.90;;;;;;4935685;29;20213;-77
2023/05/20 17:13:36;;;;;;;3.30;2.30;;;19.60;99.90;;;;;;4935490;29;20209;-77
2023/05/20 17:16:03;;;;;;;2.42;2.00;;;19.60;99.90;;;;;;4935474;29;20716;-77
2023/05/20 17:18:30;;;;;;;3.53;2.40;;;19.60;99.90;;;;;;4935274;29;20283;-77
2023/05/20 17:20:57;;;;;;;3.28;2.20;;;19.60;99.90;;;;;;4935788;29;20240;-77
2023/05/20 17:23:24;;;;;;;3.17;2.20;;;19.50;99.90;;;;;;4935554;29;20236;-77
2023/05/20 17:25:51;;;;;;;3.40;2.10;;;19.50;99.90;;;;;;4935810;29;20258;-77
2023/05/20 17:28:19;;;;;;;2.22;1.90;;;19.70;99.90;;;;;;4936159;29;20229;-75
2023/05/20 17:30:46;;;;;;;1.73;1.50;;;19.90;99.90;;;;;;4935811;29;20624;-78
2023/05/20 17:33:13;;;;;;;2.38;1.60;;;20.00;99.90;;;;;;4935457;29;20208;-76
2023/05/20 17:35:40;;;;;;;3.03;1.55;;;20.00;99.90;;;;;;4935429;29;20240;-76
2023/05/20 17:38:07;;;;;;;19.27;10.20;;;19.90;99.90;;;;;;4935392;29;20320;-78
2023/05/20 17:40:35;;;;;;;3.23;1.80;;;19.80;99.90;;;;;;4935524;29;20719;-78
2023/05/20 17:43:02;;;;;;;2.08;1.50;;;19.50;99.90;;;;;;4935674;29;20221;-78
2023/05/20 17:45:30;;;;;;;3.00;2.05;;;19.40;99.90;;;;;;4935577;29;20662;-77
2023/05/20 17:47:57;;;;;;;3.00;1.90;;;19.30;99.90;;;;;;4935209;29;20798;-77
2023/05/20 17:50:24;;;;;;;1.85;1.63;;;19.20;99.90;;;;;;4935405;29;20255;-76
2023/05/20 17:52:51;;;;;;;2.87;1.70;;;19.10;99.90;;;;;;4935324;29;20245;-77
2023/05/20 17:55:20;;;;;;;2.63;1.88;;;19.10;99.90;;;;;;4935302;29;20245;-76
2023/05/20 17:57:47;;;;;;;2.88;1.80;;;19.10;99.90;;;;;;4935456;29;20292;-78
2023/05/20 18:00:16;;;;;;;2.42;1.60;;;19.20;99.90;;;;;;4935268;29;20316;-78
2023/05/20 18:02:46;;;;;;;1.93;1.57;;;19.30;99.90;;;;;;4935092;29;20715;-78
2023/05/20 18:05:15;;;;;;;1.85;1.60;;;19.30;99.90;;;;;;4935384;29;20259;-77
2023/05/20 18:07:42;;;;;;;2.13;1.70;;;19.30;99.90;;;;;;4934931;29;20323;-77
2023/05/20 18:10:10;;;;;;;2.38;1.63;;;19.40;99.90;;;;;;4936378;29;20248;-77
2023/05/20 18:12:37;;;;;;;4.65;1.55;;;19.30;99.90;;;;;;4938516;29;20215;-78
2023/05/20 18:15:05;;;;;;;3.13;1.60;;;19.30;99.90;;;;;;4938495;29;20232;-77
2023/05/20 18:17:32;;;;;;;3.70;1.50;;;19.20;99.90;;;;;;4937963;29;20225;-78
2023/05/20 18:20:00;;;;;;;1.90;1.50;;;19.20;99.90;;;;;;4938717;29;20300;-77
2023/05/20 18:22:27;;;;;;;2.42;1.52;;;19.20;99.90;;;;;;4938747;29;20212;-78
2023/05/20 18:24:54;;;;;;;3.13;1.70;;;19.20;99.90;;;;;;4938502;29;20258;-76
2023/05/20 18:27:21;;;;;;;2.77;1.80;;;19.10;99.90;;;;;;4938095;29;20323;-76
2023/05/20 18:29:48;;;;;;;2.65;2.13;;;19.10;99.90;;;;;;4938107;29;20575;-77
2023/05/20 18:32:15;;;;;;;3.55;2.10;;;19.00;99.90;;;;;;4938091;29;20208;-74
2023/05/20 18:34:42;;;;;;;3.47;2.07;;;19.00;99.90;;;;;;4938360;29;20300;-78
2023/05/20 18:37:10;;;;;;;2.33;1.80;;;18.90;99.90;;;;;;4937692;29;20272;-77
2023/05/20 18:39:37;;;;;;;2.10;1.85;;;18.90;99.90;;;;;;4938052;29;20296;-77
2023/05/20 18:42:05;;;;;;;2.10;1.60;;;18.90;99.90;;;;;;4937983;29;20252;-77
2023/05/20 18:44:32;;;;;;;2.90;1.98;;;18.90;99.90;;;;;;4937839;29;20291;-77
2023/05/20 18:46:59;;;;;;;1.90;1.30;;;18.80;99.90;;;;;;4937713;29;20279;-78
2023/05/20 18:49:26;;;;;;;1.85;1.27;;;18.80;99.90;;;;;;4937958;29;20683;-77
2023/05/20 18:51:52;;;;;;;2.47;1.73;;;18.80;99.90;;;;;;4938017;29;20299;-77
2023/05/20 18:54:21;;;;;;;1.85;1.20;;;18.70;99.90;;;;;;4937685;29;20260;-78
2023/05/20 18:56:48;;;;;;;1.60;1.50;;;18.60;99.90;;;;;;4937443;29;20300;-77
2023/05/20 18:59:15;;;;;;;1.47;1.30;;;18.60;99.90;;;;;;4937776;29;20247;-78
2023/05/20 19:01:42;;;;;;;2.60;1.70;;;18.50;99.90;;;;;;4937591;29;20668;-77
2023/05/20 19:04:09;;;;;;;2.43;1.73;;;18.50;99.90;;;;;;4937433;29;20218;-77
2023/05/20 19:06:36;;;;;;;2.00;0.95;;;18.50;99.90;;;;;;4937278;29;20810;-77
2023/05/20 19:09:03;;;;;;;1.60;1.10;;;18.50;99.90;;;;;;4937501;29;20216;-79
2023/05/20 19:11:31;;;;;;;1.50;1.13;;;18.50;99.90;;;;;;4937561;29;20243;-77
2023/05/20 19:13:58;;;;;;;1.70;1.30;;;18.40;99.90;;;;;;4937267;29;20636;-78
2023/05/20 19:16:26;;;;;;;1.38;1.10;;;18.40;99.90;;;;;;4937568;29;20212;-78
2023/05/20 19:18:52;;;;;;;1.27;1.15;;;18.40;99.90;;;;;;4937406;29;20221;-77
2023/05/20 19:21:19;;;;;;;4.67;2.43;;;18.40;99.90;;;;;;4936498;29;20300;-78
2023/05/20 19:23:47;;;;;;;3.63;1.80;;;18.40;99.90;;;;;;4936986;29;20260;-77
2023/05/20 19:26:14;;;;;;;1.50;1.13;;;18.40;99.90;;;;;;4936880;29;20256;-77
2023/05/20 19:28:42;;;;;;;1.50;1.33;;;18.30;99.90;;;;;;4937259;29;20264;-76
2023/05/20 19:31:09;;;;;;;2.45;1.60;;;18.10;99.90;;;;;;4937024;29;20617;-74
2023/05/20 19:33:37;;;;;;;2.35;1.55;;;18.00;99.90;;;;;;4937146;29;20241;-77
2023/05/20 19:36:04;;;;;;;2.30;1.20;;;18.20;99.90;;;;;;4937011;29;20576;-75
2023/05/20 19:38:31;;;;;;;1.23;1.07;;;18.10;99.90;;;;;;4936858;29;20311;-73
2023/05/20 19:40:58;;;;;;;3.17;1.30;;;18.00;99.90;;;;;;4936808;29;20717;-74
2023/05/20 19:43:25;;;;;;;2.20;1.10;;;18.00;99.90;;;;;;4937177;29;20642;-74
2023/05/20 19:45:53;;;;;;;1.90;1.40;;;17.80;99.90;;;;;;4937116;29;20243;-74
2023/05/20 19:48:20;;;;;;;2.17;1.63;;;17.70;99.90;;;;;;4936605;29;20248;-76
2023/05/20 19:50:47;;;;;;;2.07;1.30;;;17.60;99.90;;;;;;4936803;29;20240;-74
2023/05/20 19:53:14;;;;;;;1.30;1.07;;;17.60;99.90;;;;;;4936499;29;20299;-74
2023/05/20 19:55:41;;;;;;;1.47;1.10;;;17.70;99.90;;;;;;4936770;29;20220;-75
2023/05/20 19:58:08;;;;;;;2.03;0.97;;;17.60;99.90;;;;;;4919391;29;20708;-75
2023/05/20 20:00:35;;;;;;;1.73;1.20;;;17.60;99.90;;;;;;4936752;29;20259;-77
2023/05/20 20:03:05;;;;;;;3.67;1.30;;;17.60;99.90;;;;;;4936645;29;20310;-78
2023/05/20 20:05:32;;;;;;;2.77;1.30;;;17.70;99.90;;;;;;4936732;29;20212;-77
2023/05/20 20:07:59;;;;;;;1.77;1.10;;;17.70;99.90;;;;;;4936659;29;20327;-78
2023/05/20 20:10:26;;;;;;;1.67;1.10;;;17.70;99.90;;;;;;4936578;29;20673;-79
2023/05/20 20:12:53;;;;;;;2.30;1.10;;;17.70;99.90;;;;;;4936575;29;20240;-77
2023/05/20 20:15:20;;;;;;;3.67;1.27;;;17.70;99.90;;;;;;4936584;29;20759;-78
2023/05/20 20:17:50;;;;;;;3.03;1.20;;;17.60;99.90;;;;;;4936317;29;20591;-74
2023/05/20 20:20:19;;;;;;;2.63;1.47;;;17.50;99.90;;;;;;4936492;29;20244;-77
2023/05/20 20:22:46;;;;;;;1.87;1.30;;;17.30;99.90;;;;;;4936420;29;20251;-78
2023/05/20 20:25:14;;;;;;;1.80;1.23;;;17.30;99.90;;;;;;4936524;29;20300;-77
2023/05/20 20:27:42;;;;;;;1.80;1.30;;;17.20;99.90;;;;;;4935917;29;20240;-77
2023/05/20 20:30:10;;;;;;;2.63;1.43;;;17.30;99.90;;;;;;4936057;29;20205;-76
2023/05/20 20:32:37;;;;;;;5.17;1.30;;;17.40;99.90;;;;;;4935865;29;20240;-78
2023/05/20 20:35:05;;;;;;;3.23;1.33;;;17.40;99.90;;;;;;4935806;29;20252;-77
2023/05/20 20:37:34;;;;;;;1.70;1.10;;;17.50;99.90;;;;;;4936262;29;20240;-77
2023/05/20 20:40:11;;;;;;;1.57;1.37;;;17.40;99.90;;;;;;4936316;29;20656;-77
2023/05/20 20:42:43;;;;;;;1.53;1.20;;;17.30;99.90;;;;;;4936058;29;20567;-78
2023/05/20 20:45:11;;;;;;;3.53;1.30;;;17.30;99.90;;;;;;4936030;29;20617;-78
2023/05/20 20:47:39;;;;;;;1.73;1.30;;;17.30;99.90;;;;;;4935475;29;20237;-77
2023/05/20 20:50:08;;;;;;;1.83;1.23;;;17.40;99.90;;;;;;4935724;29;20204;-78
2023/05/20 20:52:37;;;;;;;1.77;1.40;;;17.50;99.90;;;;;;4935913;29;20287;-78
2023/05/20 20:55:04;;;;;;;3.13;1.57;;;17.40;99.90;;;;;;4935927;29;20220;-78
2023/05/20 20:57:34;;;;;;;3.03;1.50;;;17.20;99.90;;;;;;4935945;29;20315;-78
2023/05/20 21:00:07;;;;;;;2.07;1.10;;;17.30;99.90;;;;;;4935533;29;20271;-78
2023/05/20 21:02:34;;;;;;;3.70;1.50;;;17.40;99.90;;;;;;4935948;29;20212;-78
2023/05/20 21:05:01;;;;;;;1.73;1.30;;;17.30;99.90;;;;;;4935877;29;20703;-76
2023/05/20 21:07:29;;;;;;;1.60;1.30;;;17.20;99.90;;;;;;4935976;29;20670;-77
2023/05/20 21:09:57;;;;;;;4.83;1.40;;;17.10;99.90;;;;;;4936018;29;20332;-78
2023/05/20 21:12:24;;;;;;;1.53;1.30;;;17.00;99.90;;;;;;4935562;29;20267;-78
2023/05/20 21:14:51;;;;;;;2.50;1.27;;;16.90;99.90;;;;;;4935192;29;20300;-78
2023/05/20 21:17:18;;;;;;;3.70;1.27;;;16.80;99.90;;;;;;4935385;29;20292;-78
2023/05/20 21:19:45;;;;;;;2.53;1.40;;;16.80;99.90;;;;;;4935806;29;20303;-77
2023/05/20 21:22:11;;;;;;;2.20;1.30;;;16.70;99.90;;;;;;4935780;29;20204;-77
2023/05/20 21:24:38;;;;;;;2.30;1.53;;;16.80;99.90;;;;;;4935729;29;20236;-77
2023/05/20 21:27:07;;;;;;;1.73;1.30;;;16.70;99.90;;;;;;4935432;29;20319;-77
2023/05/20 21:29:34;;;;;;;2.87;1.30;;;16.70;99.90;;;;;;4935950;29;20639;-77
2023/05/20 21:32:01;;;;;;;1.80;1.30;;;16.50;99.90;;;;;;4935485;29;20731;-78
2023/05/20 21:34:28;;;;;;;2.10;1.30;;;16.40;99.90;;;;;;4935156;29;20695;-78
2023/05/20 21:36:55;;;;;;;2.17;1.40;;;16.20;99.90;;;;;;4935323;29;20209;-76
2023/05/20 21:39:21;;;;;;;1.97;1.30;;;16.10;99.90;;;;;;4935542;29;20249;-79
2023/05/20 21:41:48;;;;;;;1.83;1.30;;;16.00;99.90;;;;;;4935315;29;20300;-78
2023/05/20 21:44:17;;;;;;;2.10;1.70;;;15.90;99.90;;;;;;4935164;29;20216;-78
2023/05/20 21:46:44;;;;;;;4.37;1.47;;;15.80;99.90;;;;;;4939350;29;20304;-78
2023/05/20 21:49:11;;;;;;;2.40;1.60;;;15.70;99.90;;;;;;4939379;29;20282;-78
2023/05/20 21:51:37;;;;;;;3.43;1.70;;;15.60;99.90;;;;;;4939225;29;20295;-79
2023/05/20 21:54:04;;;;;;;1.53;1.23;;;15.40;99.90;;;;;;4938849;29;20241;-76
2023/05/20 21:56:31;;;;;;;2.30;1.57;;;15.40;99.90;;;;;;4939635;29;20240;-77
2023/05/20 21:58:58;;;;;;;2.67;1.60;;;15.40;99.90;;;;;;4939118;29;20320;-79
2023/05/20 22:01:26;;;;;;;2.47;1.70;;;15.40;99.90;;;;;;4938906;29;20300;-77
2023/05/20 22:03:54;;;;;;;2.90;1.70;;;15.30;99.90;;;;;;4938924;29;20267;-73
2023/05/20 22:06:22;;;;;;;2.63;1.63;;;15.30;99.90;;;;;;4938833;29;20209;-74
2023/05/20 22:08:49;;;;;;;2.93;2.20;;;15.30;99.90;;;;;;4938505;29;20364;-77
2023/05/20 22:11:16;;;;;;;2.63;1.60;;;15.20;99.90;;;;;;4938712;29;20731;-73
2023/05/20 22:13:43;;;;;;;2.33;1.60;;;15.20;99.90;;;;;;4938909;29;20295;-77
2023/05/20 22:16:10;;;;;;;2.13;1.60;;;15.10;99.90;;;;;;4938709;29;20291;-73
2023/05/20 22:18:39;;;;;;;4.27;1.53;;;15.10;99.90;;;;;;4938248;29;20286;-74
2023/05/20 22:21:06;;;;;;;2.37;1.37;;;15.00;99.90;;;;;;4938503;29;20248;-75
2023/05/20 22:23:33;;;;;;;2.40;1.30;;;15.00;99.90;;;;;;4938387;29;20291;-77
2023/05/20 22:26:00;;;;;;;2.10;1.57;;;15.00;99.90;;;;;;4938449;29;20248;-74
2023/05/20 22:28:27;;;;;;;2.33;1.53;;;15.00;99.90;;;;;;4938336;29;20243;-73
2023/05/20 22:30:54;;;;;;;2.90;1.53;;;15.10;99.90;;;;;;4938427;29;20675;-74
2023/05/20 22:33:23;;;;;;;2.63;1.20;;;15.10;99.90;;;;;;4938234;29;20300;-74
2023/05/20 22:35:52;;;;;;;1.60;1.10;;;15.10;99.90;;;;;;4938134;29;20767;-73
2023/05/20 22:38:20;;;;;;;1.80;1.30;;;15.10;99.90;;;;;;4934540;29;20228;-74
